Time;durP1;ratioP1;P1;durP2;ratioP2;P2;SDS_P1;SDS_P2;PMS_P1;PMS_P2;Temp;Humidity;BMP_temperature;BMP_pressure;BME280_temperature;BME280_humidity;BME280_pressure;Samples;Min_cycle;Max_cycle;Signal;HPM_P1;HPM_P2
2023/01/23 00:02:20;;;;;;;22.30;10.60;;;;;;;;;;5092979;28;20056;-74
2023/01/23 00:04:48;;;;;;;14.90;8.73;;;;;;;;;;5057912;28;20490;-74
2023/01/23 00:07:14;;;;;;;19.67;10.15;;;;;;;;;;5072817;28;20502;-74
2023/01/23 00:09:40;;;;;;;20.88;9.52;;;;;;;;;;5072998;28;20048;-74
2023/01/23 00:12:06;;;;;;;18.17;9.48;;;;;;;;;;5080170;28;20043;-74
2023/01/23 00:14:32;;;;;;;20.42;10.73;;;;;;;;;;5088880;28;20040;-74
2023/01/23 00:16:58;;;;;;;19.05;10.20;;;;;;;;;;5076746;28;20133;-74
2023/01/23 00:19:24;;;;;;;18.08;9.68;;;;;;;;;;5092382;28;20109;-74
2023/01/23 00:21:50;;;;;;;17.83;10.82;;;;;;;;;;5074988;28;20048;-74
2023/01/23 00:24:17;;;;;;;19.70;10.45;;;;;;;;;;5090601;28;20054;-74
2023/01/23 00:26:43;;;;;;;18.75;10.63;;;;;;;;;;5090786;28;20402;-74
2023/01/23 00:29:09;;;;;;;19.42;9.88;;;;;;;;;;5090593;28;20187;-74
2023/01/23 00:31:36;;;;;;;20.08;10.13;;;;;;;;;;5076455;28;20127;-74
2023/01/23 00:34:04;;;;;;;18.52;11.00;;;;;;;;;;5077526;28;20044;-74
2023/01/23 00:36:32;;;;;;;22.00;10.93;;;;;;;;;;5091183;28;20040;-74
2023/01/23 00:38:58;;;;;;;24.17;11.00;;;;;;;;;;5086717;28;20044;-74
2023/01/23 00:41:25;;;;;;;19.30;11.00;;;;;;;;;;5087052;28;20154;-74
2023/01/23 00:43:51;;;;;;;23.58;11.43;;;;;;;;;;5070574;28;20047;-73
2023/01/23 00:46:18;;;;;;;19.00;10.43;;;;;;;;;;5084232;28;20040;-73
2023/01/23 00:48:44;;;;;;;19.95;10.00;;;;;;;;;;5084147;28;20391;-73
2023/01/23 00:51:10;;;;;;;17.83;10.10;;;;;;;;;;5084205;28;20048;-73
2023/01/23 00:53:36;;;;;;;20.10;10.45;;;;;;;;;;5093131;28;20076;-72
2023/01/23 00:56:02;;;;;;;16.55;9.88;;;;;;;;;;5077321;28;20098;-73
2023/01/23 00:58:28;;;;;;;18.15;10.18;;;;;;;;;;5076563;28;20091;-73
2023/01/23 01:00:54;;;;;;;21.77;10.90;;;;;;;;;;5068209;28;20044;-73
2023/01/23 01:03:20;;;;;;;19.90;10.50;;;;;;;;;;5096254;28;20117;-73
2023/01/23 01:05:47;;;;;;;21.50;10.80;;;;;;;;;;5096635;28;20043;-73
2023/01/23 01:08:13;;;;;;;18.05;10.98;;;;;;;;;;5095689;28;20051;-74
2023/01/23 01:10:40;;;;;;;22.65;10.55;;;;;;;;;;5094432;28;20051;-73
2023/01/23 01:13:06;;;;;;;19.15;11.32;;;;;;;;;;5080266;28;20119;-73
2023/01/23 01:15:32;;;;;;;21.35;11.40;;;;;;;;;;5092280;28;20040;-73
2023/01/23 01:17:58;;;;;;;20.45;10.07;;;;;;;;;;5087493;28;20093;-73
2023/01/23 01:20:26;;;;;;;16.73;10.82;;;;;;;;;;5093978;28;20083;-74
2023/01/23 01:22:53;;;;;;;18.38;9.45;;;;;;;;;;5077837;28;20047;-72
2023/01/23 01:25:19;;;;;;;18.02;10.88;;;;;;;;;;5079050;28;20048;-72
2023/01/23 01:27:45;;;;;;;19.75;9.65;;;;;;;;;;5093051;28;20482;-73
2023/01/23 01:30:12;;;;;;;19.48;10.70;;;;;;;;;;5090590;28;20058;-73
2023/01/23 01:32:38;;;;;;;17.10;9.10;;;;;;;;;;5094664;28;20082;-73
2023/01/23 01:35:06;;;;;;;23.00;10.48;;;;;;;;;;5086466;28;20040;-73
2023/01/23 01:37:32;;;;;;;20.65;10.93;;;;;;;;;;5090639;28;20045;-73
2023/01/23 01:39:59;;;;;;;17.92;9.98;;;;;;;;;;5091683;28;21092;-73
2023/01/23 01:42:27;;;;;;;16.88;9.48;;;;;;;;;;5089186;28;20044;-73
2023/01/23 01:44:55;;;;;;;18.20;9.75;;;;;;;;;;5092227;28;20771;-73
2023/01/23 01:47:21;;;;;;;20.00;9.70;;;;;;;;;;5091138;28;20071;-74
2023/01/23 01:49:47;;;;;;;17.02;9.10;;;;;;;;;;5095822;28;20385;-73
2023/01/23 01:52:14;;;;;;;19.10;10.30;;;;;;;;;;5089620;28;20049;-74
2023/01/23 01:54:42;;;;;;;19.13;10.10;;;;;;;;;;5083779;28;20517;-76
2023/01/23 01:57:20;;;;;;;20.00;9.88;;;;;;;;;;5095562;28;20043;-74
2023/01/23 02:00:14;;;;;;;21.25;10.70;;;;;;;;;;5081317;28;20127;-75
2023/01/23 02:02:51;;;;;;;17.92;10.35;;;;;;;;;;5075699;28;20057;-74
2023/01/23 02:05:24;;;;;;;21.15;10.75;;;;;;;;;;5074093;28;20565;-74
2023/01/23 02:07:50;;;;;;;21.02;10.55;;;;;;;;;;5075026;28;20487;-74
2023/01/23 02:10:17;;;;;;;18.23;9.95;;;;;;;;;;5084456;28;20485;-74
2023/01/23 02:12:46;;;;;;;16.88;10.48;;;;;;;;;;5084391;28;20036;-74
2023/01/23 02:15:12;;;;;;;19.65;10.23;;;;;;;;;;5083908;28;20044;-74
2023/01/23 02:17:39;;;;;;;21.25;10.77;;;;;;;;;;5087080;28;20047;-74
2023/01/23 02:20:20;;;;;;;17.70;10.63;;;;;;;;;;5090260;28;20039;-74
2023/01/23 02:22:52;;;;;;;19.10;10.70;;;;;;;;;;5061905;28;20040;-74
2023/01/23 02:25:28;;;;;;;19.95;11.07;;;;;;;;;;5090486;28;20082;-74
2023/01/23 02:27:54;;;;;;;19.65;10.88;;;;;;;;;;5075731;28;20061;-74
2023/01/23 02:30:20;;;;;;;21.17;10.98;;;;;;;;;;5085254;28;20512;-74
2023/01/23 02:32:46;;;;;;;19.40;10.25;;;;;;;;;;5089087;28;20047;-74
2023/01/23 02:35:16;;;;;;;22.15;10.80;;;;;;;;;;5081811;28;20078;-74
2023/01/23 02:37:46;;;;;;;18.25;10.18;;;;;;;;;;5089464;28;20047;-74
2023/01/23 02:40:12;;;;;;;19.75;10.82;;;;;;;;;;5072436;28;20048;-74
2023/01/23 02:42:41;;;;;;;18.73;10.43;;;;;;;;;;5089419;28;20409;-74
2023/01/23 02:45:08;;;;;;;15.70;10.57;;;;;;;;;;5086706;28;20044;-73
2023/01/23 02:47:34;;;;;;;21.80;12.20;;;;;;;;;;5093027;28;20113;-74
2023/01/23 02:50:00;;;;;;;20.90;11.32;;;;;;;;;;5091297;28;20044;-72
2023/01/23 02:52:26;;;;;;;18.67;10.32;;;;;;;;;;5086212;28;20052;-73
2023/01/23 02:54:52;;;;;;;20.90;10.50;;;;;;;;;;5090185;28;20040;-74
2023/01/23 02:57:18;;;;;;;17.70;11.27;;;;;;;;;;5093548;28;20044;-73
2023/01/23 03:02:29;;;;;;;19.10;12.00;;;;;;;;;;5092952;28;20052;-74
2023/01/23 03:04:55;;;;;;;21.02;12.40;;;;;;;;;;5085753;28;20055;-74
2023/01/23 03:07:21;;;;;;;19.80;12.10;;;;;;;;;;5074920;28;20048;-74
2023/01/23 03:09:47;;;;;;;21.20;11.52;;;;;;;;;;5092960;28;20040;-73
2023/01/23 03:12:14;;;;;;;18.45;11.05;;;;;;;;;;5086024;28;20063;-74
2023/01/23 03:14:40;;;;;;;22.17;11.75;;;;;;;;;;5081665;28;20043;-73
2023/01/23 03:17:06;;;;;;;17.30;11.88;;;;;;;;;;5081422;28;20414;-74
2023/01/23 03:19:32;;;;;;;22.63;12.15;;;;;;;;;;5090221;28;20036;-74
2023/01/23 03:21:59;;;;;;;23.92;12.25;;;;;;;;;;5093563;28;20052;-73
2023/01/23 03:24:25;;;;;;;18.40;12.00;;;;;;;;;;5093087;28;20436;-74
2023/01/23 03:26:51;;;;;;;19.35;11.55;;;;;;;;;;5092603;28;20040;-74
2023/01/23 03:32:07;;;;;;;22.58;12.10;;;;;;;;;;5073644;28;20052;-75
2023/01/23 03:34:33;;;;;;;22.95;12.05;;;;;;;;;;5073504;28;20044;-74
2023/01/23 03:37:00;;;;;;;24.00;12.02;;;;;;;;;;5083149;28;20036;-74
2023/01/23 03:42:11;;;;;;;21.30;12.23;;;;;;;;;;5086696;28;20048;-73
2023/01/23 03:44:37;;;;;;;27.17;12.98;;;;;;;;;;5078144;28;20414;-73
2023/01/23 03:47:04;;;;;;;22.48;12.35;;;;;;;;;;5076803;28;20499;-73
2023/01/23 03:49:30;;;;;;;21.30;13.00;;;;;;;;;;5091199;28;20513;-74
2023/01/23 03:51:56;;;;;;;22.88;13.23;;;;;;;;;;5090752;28;20040;-74
2023/01/23 03:54:22;;;;;;;21.65;11.77;;;;;;;;;;5065303;28;20413;-74
2023/01/23 03:56:48;;;;;;;18.88;12.52;;;;;;;;;;5084356;28;20097;-74
2023/01/23 03:59:14;;;;;;;19.50;12.18;;;;;;;;;;5082841;28;20050;-74
2023/01/23 04:01:41;;;;;;;20.63;11.85;;;;;;;;;;5092865;28;20070;-74
2023/01/23 04:04:07;;;;;;;20.00;12.40;;;;;;;;;;5091478;28;20501;-74
2023/01/23 04:06:33;;;;;;;18.70;11.65;;;;;;;;;;5091547;28;20501;-74
2023/01/23 04:08:59;;;;;;;22.30;13.13;;;;;;;;;;5090592;28;20120;-74
2023/01/23 04:11:25;;;;;;;27.52;13.38;;;;;;;;;;5092701;28;20094;-74
2023/01/23 04:13:52;;;;;;;18.85;12.57;;;;;;;;;;5091919;28;20039;-74
2023/01/23 04:16:18;;;;;;;20.52;12.27;;;;;;;;;;5082309;28;20422;-74
2023/01/23 04:18:44;;;;;;;20.23;12.43;;;;;;;;;;5086036;28;20036;-74
2023/01/23 04:21:10;;;;;;;20.50;12.90;;;;;;;;;;5092299;28;20044;-74
2023/01/23 04:23:36;;;;;;;21.30;13.00;;;;;;;;;;5089490;28;20041;-74
2023/01/23 04:26:02;;;;;;;22.65;12.32;;;;;;;;;;5090895;28;20044;-73
2023/01/23 04:28:29;;;;;;;21.67;12.73;;;;;;;;;;5074674;28;20032;-74
2023/01/23 04:30:55;;;;;;;20.75;13.00;;;;;;;;;;5087053;28;20079;-74
2023/01/23 04:33:21;;;;;;;22.73;11.45;;;;;;;;;;5081001;28;20490;-74
2023/01/23 04:35:50;;;;;;;24.00;12.60;;;;;;;;;;5091046;28;20043;-74
2023/01/23 04:38:16;;;;;;;22.27;13.10;;;;;;;;;;5084583;28;20036;-74
2023/01/23 04:40:43;;;;;;;20.63;12.07;;;;;;;;;;5089741;28;20070;-74
2023/01/23 04:43:09;;;;;;;23.65;12.23;;;;;;;;;;5088017;28;20518;-74
2023/01/23 04:45:35;;;;;;;20.83;12.70;;;;;;;;;;5090479;28;20044;-74
2023/01/23 04:48:01;;;;;;;20.38;11.95;;;;;;;;;;5083321;28;20153;-74
2023/01/23 04:50:27;;;;;;;23.25;13.05;;;;;;;;;;5068352;28;20040;-74
2023/01/23 04:52:54;;;;;;;18.42;12.88;;;;;;;;;;5079939;28;20056;-74
2023/01/23 04:55:20;;;;;;;23.30;13.10;;;;;;;;;;5090114;28;20076;-74
2023/01/23 04:57:46;;;;;;;23.00;13.73;;;;;;;;;;5089057;28;20047;-74
2023/01/23 05:00:12;;;;;;;21.58;12.68;;;;;;;;;;5083014;28;20053;-76
2023/01/23 05:02:38;;;;;;;21.02;13.95;;;;;;;;;;5085342;28;20078;-74
2023/01/23 05:05:05;;;;;;;26.60;14.73;;;;;;;;;;5079121;28;20193;-74
2023/01/23 05:07:31;;;;;;;18.35;12.00;;;;;;;;;;5088640;28;20092;-73
2023/01/23 05:09:57;;;;;;;19.80;12.45;;;;;;;;;;5091313;28;20032;-74
2023/01/23 05:12:23;;;;;;;19.85;11.45;;;;;;;;;;5082091;28;20041;-74
2023/01/23 05:14:49;;;;;;;19.90;12.18;;;;;;;;;;5072245;28;20491;-74
2023/01/23 05:17:15;;;;;;;22.05;13.57;;;;;;;;;;5074862;28;20051;-74
2023/01/23 05:19:41;;;;;;;17.58;11.75;;;;;;;;;;5083028;28;20097;-73
2023/01/23 05:22:07;;;;;;;20.88;12.48;;;;;;;;;;5079784;28;20056;-73
2023/01/23 05:24:34;;;;;;;17.58;12.00;;;;;;;;;;5092491;28;20044;-73
2023/01/23 05:27:00;;;;;;;20.38;12.00;;;;;;;;;;5082295;28;20055;-73
2023/01/23 05:29:26;;;;;;;19.75;12.18;;;;;;;;;;5072469;28;20474;-73
2023/01/23 05:31:52;;;;;;;18.70;11.57;;;;;;;;;;5072133;28;20093;-73
2023/01/23 05:34:18;;;;;;;18.90;12.40;;;;;;;;;;5076528;28;20043;-74
2023/01/23 05:36:44;;;;;;;22.27;12.13;;;;;;;;;;5076209;28;20127;-73
2023/01/23 05:39:10;;;;;;;20.30;12.60;;;;;;;;;;5085393;28;20524;-73
2023/01/23 05:41:36;;;;;;;19.42;11.98;;;;;;;;;;5090724;28;20052;-73
2023/01/23 05:44:02;;;;;;;19.27;11.77;;;;;;;;;;5093316;28;20047;-73
2023/01/23 05:46:28;;;;;;;19.65;12.23;;;;;;;;;;5093716;28;20543;-73
2023/01/23 05:48:54;;;;;;;20.50;13.02;;;;;;;;;;5085728;28;20401;-75
2023/01/23 05:51:22;;;;;;;21.77;12.68;;;;;;;;;;5094725;28;20044;-73
2023/01/23 05:53:48;;;;;;;20.20;12.55;;;;;;;;;;5088177;28;20044;-73
2023/01/23 05:56:14;;;;;;;23.15;12.57;;;;;;;;;;5083091;28;20417;-75
2023/01/23 05:58:40;;;;;;;19.88;13.02;;;;;;;;;;5074633;28;20052;-74
2023/01/23 06:01:06;;;;;;;20.00;12.73;;;;;;;;;;5089992;28;20686;-73
2023/01/23 06:03:32;;;;;;;18.83;11.57;;;;;;;;;;5091181;28;20621;-73
2023/01/23 06:06:00;;;;;;;23.90;13.15;;;;;;;;;;5094339;28;20397;-74
2023/01/23 06:08:26;;;;;;;22.67;12.60;;;;;;;;;;5075087;28;20132;-74
2023/01/23 06:10:52;;;;;;;23.40;13.23;;;;;;;;;;5090725;28;20043;-74
2023/01/23 06:13:18;;;;;;;21.05;12.57;;;;;;;;;;5076676;28;20052;-73
2023/01/23 06:15:44;;;;;;;21.52;12.38;;;;;;;;;;5077171;28;20039;-74
2023/01/23 06:18:11;;;;;;;21.20;13.43;;;;;;;;;;5090361;28;20048;-73
2023/01/23 06:20:37;;;;;;;22.58;14.05;;;;;;;;;;5072792;28;20055;-73
2023/01/23 06:23:03;;;;;;;19.25;12.95;;;;;;;;;;5081934;28;20097;-73
2023/01/23 06:25:29;;;;;;;20.77;13.60;;;;;;;;;;5084819;28;20044;-73
2023/01/23 06:27:55;;;;;;;17.70;13.07;;;;;;;;;;5071251;28;20049;-73
2023/01/23 06:30:21;;;;;;;21.00;12.75;;;;;;;;;;5082424;28;20049;-73
2023/01/23 06:32:47;;;;;;;20.95;12.88;;;;;;;;;;5082348;28;20043;-73
2023/01/23 06:35:13;;;;;;;23.15;12.35;;;;;;;;;;5083217;28;20044;-73
2023/01/23 06:37:39;;;;;;;19.42;12.23;;;;;;;;;;5074454;28;20105;-73
2023/01/23 06:40:05;;;;;;;16.85;11.90;;;;;;;;;;5085740;28;20036;-73
2023/01/23 06:42:31;;;;;;;16.88;12.20;;;;;;;;;;5093048;28;20039;-73
2023/01/23 06:44:57;;;;;;;17.90;12.23;;;;;;;;;;5084485;28;20040;-73
2023/01/23 06:47:23;;;;;;;21.95;13.00;;;;;;;;;;5084538;28;20067;-74
2023/01/23 06:49:49;;;;;;;18.58;13.27;;;;;;;;;;5092846;28;20051;-73
2023/01/23 06:52:16;;;;;;;19.80;12.00;;;;;;;;;;5091889;28;20051;-74
2023/01/23 06:54:42;;;;;;;19.17;12.00;;;;;;;;;;5088498;28;20044;-73
2023/01/23 06:57:08;;;;;;;21.70;12.52;;;;;;;;;;5082598;28;20055;-73
2023/01/23 06:59:34;;;;;;;21.25;13.18;;;;;;;;;;5081377;28;20044;-74
2023/01/23 07:02:00;;;;;;;17.50;12.43;;;;;;;;;;5075622;28;20036;-73
2023/01/23 07:04:26;;;;;;;21.80;12.60;;;;;;;;;;5071118;28;20047;-74
2023/01/23 07:06:52;;;;;;;23.05;12.98;;;;;;;;;;5089635;28;20040;-73
2023/01/23 07:09:18;;;;;;;22.92;13.52;;;;;;;;;;5084312;28;20047;-73
2023/01/23 07:11:44;;;;;;;20.38;12.70;;;;;;;;;;5093568;28;20052;-74
2023/01/23 07:14:10;;;;;;;23.85;12.90;;;;;;;;;;5093814;28;20055;-73
2023/01/23 07:16:36;;;;;;;20.00;13.48;;;;;;;;;;5093691;28;20044;-73
2023/01/23 07:19:04;;;;;;;18.00;11.73;;;;;;;;;;5093636;28;20054;-75
2023/01/23 07:21:30;;;;;;;21.98;13.32;;;;;;;;;;5092060;28;20082;-73
2023/01/23 07:23:56;;;;;;;19.25;12.43;;;;;;;;;;5093117;28;20040;-74
2023/01/23 07:26:22;;;;;;;21.13;13.23;;;;;;;;;;5093248;28;20040;-73
2023/01/23 07:28:48;;;;;;;19.13;12.27;;;;;;;;;;5092530;28;20088;-73
2023/01/23 07:31:15;;;;;;;21.90;12.93;;;;;;;;;;5092799;28;20044;-73
2023/01/23 07:33:41;;;;;;;24.23;12.95;;;;;;;;;;5079587;28;20043;-74
2023/01/23 07:36:07;;;;;;;20.77;12.98;;;;;;;;;;5091618;28;20048;-73
2023/01/23 07:38:34;;;;;;;27.65;17.60;;;;;;;;;;5090350;28;20058;-73
2023/01/23 07:41:00;;;;;;;36.25;23.63;;;;;;;;;;5080048;28;20452;-74
2023/01/23 07:43:26;;;;;;;30.00;20.50;;;;;;;;;;5075889;28;20051;-74
2023/01/23 07:45:53;;;;;;;40.95;29.25;;;;;;;;;;5080859;28;20041;-74
2023/01/23 07:48:19;;;;;;;25.65;17.92;;;;;;;;;;5072938;28;20040;-74
2023/01/23 07:50:45;;;;;;;31.85;19.52;;;;;;;;;;5085204;28;20436;-73
2023/01/23 07:53:11;;;;;;;24.13;17.02;;;;;;;;;;5083171;28;20051;-74
2023/01/23 07:55:38;;;;;;;20.95;15.88;;;;;;;;;;5079878;28;20483;-74
2023/01/23 07:58:04;;;;;;;25.10;18.00;;;;;;;;;;5090177;28;20043;-74
2023/01/23 08:00:30;;;;;;;21.27;15.40;;;;;;;;;;5086669;28;20048;-74
2023/01/23 08:02:56;;;;;;;22.30;15.20;;;;;;;;;;5090769;28;20113;-74
2023/01/23 08:05:22;;;;;;;16.15;11.07;;;;;;;;;;5091279;28;20035;-74
2023/01/23 08:07:48;;;;;;;18.73;12.68;;;;;;;;;;5079064;28;20090;-73
2023/01/23 08:10:14;;;;;;;18.77;12.52;;;;;;;;;;5079276;28;20052;-73
2023/01/23 08:12:40;;;;;;;20.05;14.75;;;;;;;;;;5082278;28;20457;-73
2023/01/23 08:15:07;;;;;;;16.05;9.90;;;;;;;;;;5088175;28;20397;-73
2023/01/23 08:17:33;;;;;;;16.52;9.65;;;;;;;;;;5074086;28;20048;-73
2023/01/23 08:19:59;;;;;;;16.05;9.90;;;;;;;;;;5083425;28;20040;-74
2023/01/23 08:22:25;;;;;;;15.88;10.05;;;;;;;;;;5088670;28;20140;-74
2023/01/23 08:24:51;;;;;;;15.48;9.70;;;;;;;;;;5083905;28;20048;-75
2023/01/23 08:27:17;;;;;;;16.65;9.63;;;;;;;;;;5080038;28;20055;-74
2023/01/23 08:29:43;;;;;;;15.18;9.35;;;;;;;;;;5089937;28;20037;-73
2023/01/23 08:32:09;;;;;;;14.35;10.07;;;;;;;;;;5090389;28;20044;-73
2023/01/23 08:34:35;;;;;;;12.77;9.60;;;;;;;;;;5092374;28;20050;-73
2023/01/23 08:37:01;;;;;;;17.15;10.85;;;;;;;;;;5091910;28;20044;-73
2023/01/23 08:39:27;;;;;;;15.95;10.23;;;;;;;;;;5091156;28;20059;-73
2023/01/23 08:41:53;;;;;;;13.95;10.45;;;;;;;;;;5089155;28;20109;-73
2023/01/23 08:44:19;;;;;;;15.20;9.32;;;;;;;;;;5089377;28;20040;-73
2023/01/23 08:46:46;;;;;;;15.52;9.68;;;;;;;;;;5089415;28;20052;-73
2023/01/23 08:49:12;;;;;;;16.85;9.65;;;;;;;;;;5091914;28;20500;-74
2023/01/23 08:51:38;;;;;;;15.75;8.93;;;;;;;;;;5090204;28;20052;-73
2023/01/23 08:54:04;;;;;;;13.25;7.88;;;;;;;;;;5090802;28;20097;-73
2023/01/23 08:56:30;;;;;;;12.80;8.32;;;;;;;;;;5091907;28;20082;-75
2023/01/23 08:58:57;;;;;;;12.80;7.75;;;;;;;;;;5091595;28;20041;-75
2023/01/23 09:01:25;;;;;;;11.77;7.75;;;;;;;;;;5091002;28;20048;-75
2023/01/23 09:03:51;;;;;;;12.27;8.63;;;;;;;;;;5087339;28;20075;-74
2023/01/23 09:06:18;;;;;;;15.80;11.30;;;;;;;;;;5081543;28;20044;-74
2023/01/23 09:08:44;;;;;;;15.73;11.93;;;;;;;;;;5091425;28;20405;-75
2023/01/23 09:11:11;;;;;;;22.02;18.15;;;;;;;;;;5073381;28;20040;-74
2023/01/23 09:13:37;;;;;;;20.15;15.30;;;;;;;;;;5092109;28;20044;-74
2023/01/23 09:16:04;;;;;;;16.48;11.15;;;;;;;;;;5094645;28;20052;-74
2023/01/23 09:18:30;;;;;;;14.07;9.50;;;;;;;;;;5080711;28;20052;-74
2023/01/23 09:20:57;;;;;;;15.10;9.60;;;;;;;;;;5078932;28;20048;-74
2023/01/23 09:23:24;;;;;;;11.68;8.50;;;;;;;;;;5086584;28;20049;-75
2023/01/23 09:25:50;;;;;;;12.85;8.90;;;;;;;;;;5090031;28;20405;-74
2023/01/23 09:28:16;;;;;;;15.05;8.80;;;;;;;;;;5095221;28;20067;-74
2023/01/23 09:30:42;;;;;;;13.75;8.73;;;;;;;;;;5094112;28;20048;-74
2023/01/23 09:33:08;;;;;;;14.52;9.35;;;;;;;;;;5081105;28;20118;-74
2023/01/23 09:35:35;;;;;;;15.88;9.27;;;;;;;;;;5080231;28;20041;-77
2023/01/23 09:38:01;;;;;;;12.77;8.25;;;;;;;;;;5076867;28;20041;-74
2023/01/23 09:40:30;;;;;;;12.75;8.85;;;;;;;;;;5095052;28;20090;-75
2023/01/23 09:42:58;;;;;;;14.55;8.70;;;;;;;;;;5095001;28;20084;-75
2023/01/23 09:45:25;;;;;;;13.73;7.90;;;;;;;;;;5084798;28;20101;-74
2023/01/23 09:47:55;;;;;;;16.83;8.98;;;;;;;;;;5087109;28;20051;-74
2023/01/23 09:50:26;;;;;;;13.88;8.80;;;;;;;;;;5083868;28;20052;-74
2023/01/23 09:53:01;;;;;;;16.02;9.88;;;;;;;;;;5056394;28;20036;-76
2023/01/23 09:55:34;;;;;;;14.05;9.35;;;;;;;;;;5076980;28;20059;-74
2023/01/23 09:58:02;;;;;;;13.25;9.35;;;;;;;;;;5082071;28;20064;-74
2023/01/23 10:00:31;;;;;;;15.95;8.93;;;;;;;;;;5084990;28;20083;-75
2023/01/23 10:03:00;;;;;;;14.95;9.57;;;;;;;;;;5087900;28;20063;-74
2023/01/23 10:05:46;;;;;;;12.80;9.23;;;;;;;;;;5077261;28;20052;-74
2023/01/23 10:08:28;;;;;;;16.23;9.88;;;;;;;;;;5088651;28;20040;-74
2023/01/23 10:10:54;;;;;;;17.90;12.13;;;;;;;;;;5092300;28;20052;-76
2023/01/23 10:13:35;;;;;;;12.90;10.70;;;;;;;;;;5088683;28;20086;-75
2023/01/23 10:16:14;;;;;;;14.38;9.40;;;;;;;;;;5083380;28;20482;-74
2023/01/23 10:18:58;;;;;;;14.10;8.70;;;;;;;;;;5088280;28;20049;-74
2023/01/23 10:21:31;;;;;;;13.52;9.57;;;;;;;;;;5088605;28;20059;-76
2023/01/23 10:24:00;;;;;;;15.70;9.40;;;;;;;;;;5090501;28;20048;-74
2023/01/23 10:26:30;;;;;;;16.17;9.32;;;;;;;;;;5092649;28;20048;-73
2023/01/23 10:28:58;;;;;;;14.15;9.27;;;;;;;;;;5076291;28;20127;-73
2023/01/23 10:31:37;;;;;;;13.50;9.48;;;;;;;;;;5092697;28;20525;-73
2023/01/23 10:34:24;;;;;;;13.20;8.73;;;;;;;;;;5073523;28;20053;-74
2023/01/23 10:37:00;;;;;;;13.68;8.52;;;;;;;;;;5074291;28;20055;-74
2023/01/23 10:39:29;;;;;;;12.50;9.23;;;;;;;;;;5093346;28;20508;-73
2023/01/23 10:41:55;;;;;;;12.07;9.65;;;;;;;;;;5074957;28;20051;-76
2023/01/23 10:44:21;;;;;;;14.80;9.50;;;;;;;;;;5088323;28;20503;-72
2023/01/23 10:46:49;;;;;;;12.93;9.48;;;;;;;;;;5082189;28;20050;-72
2023/01/23 10:49:34;;;;;;;14.35;9.63;;;;;;;;;;5090572;28;20131;-76
2023/01/23 10:52:00;;;;;;;15.30;10.38;;;;;;;;;;5077389;28;20498;-76
2023/01/23 10:54:29;;;;;;;15.45;9.25;;;;;;;;;;5082862;28;20044;-76
2023/01/23 10:56:57;;;;;;;14.32;10.60;;;;;;;;;;5093325;28;20044;-76
2023/01/23 10:59:27;;;;;;;13.50;9.68;;;;;;;;;;5078417;28;20060;-76
2023/01/23 11:01:58;;;;;;;15.18;10.82;;;;;;;;;;5065746;28;20059;-77
2023/01/23 11:04:26;;;;;;;18.25;11.15;;;;;;;;;;5087336;28;20173;-74
2023/01/23 11:07:01;;;;;;;21.48;12.23;;;;;;;;;;5082028;28;20044;-73
2023/01/23 11:09:27;;;;;;;17.33;10.27;;;;;;;;;;5090315;28;20048;-76
2023/01/23 11:12:00;;;;;;;14.55;9.85;;;;;;;;;;5086831;28;20498;-73
2023/01/23 11:14:26;;;;;;;14.93;10.65;;;;;;;;;;5088442;28;20045;-73
2023/01/23 11:17:03;;;;;;;14.48;10.52;;;;;;;;;;5088924;28;20047;-73
2023/01/23 11:19:31;;;;;;;17.08;9.88;;;;;;;;;;5092227;28;20051;-73
2023/01/23 11:22:01;;;;;;;15.05;10.18;;;;;;;;;;5083649;28;20119;-73
2023/01/23 11:24:30;;;;;;;14.35;10.65;;;;;;;;;;5089607;28;20040;-73
2023/01/23 11:27:17;;;;;;;15.02;10.43;;;;;;;;;;5089878;28;20044;-72
2023/01/23 11:29:49;;;;;;;15.77;10.95;;;;;;;;;;5074889;28;20044;-73
2023/01/23 11:32:16;;;;;;;14.13;10.05;;;;;;;;;;5073099;28;20094;-73
2023/01/23 11:34:52;;;;;;;15.05;10.98;;;;;;;;;;5073328;28;20032;-73
2023/01/23 11:37:18;;;;;;;14.40;10.43;;;;;;;;;;5084267;28;20048;-72
2023/01/23 11:40:11;;;;;;;16.08;11.00;;;;;;;;;;5072599;28;20498;-72
2023/01/23 11:42:39;;;;;;;14.50;10.88;;;;;;;;;;5081958;28;20045;-73
2023/01/23 11:45:11;;;;;;;15.95;10.68;;;;;;;;;;5084426;28;20512;-73
2023/01/23 11:47:53;;;;;;;15.13;10.68;;;;;;;;;;5092837;28;20044;-72
2023/01/23 11:50:29;;;;;;;28.50;14.20;;;;;;;;;;5092312;28;20044;-73
2023/01/23 11:53:07;;;;;;;15.40;10.90;;;;;;;;;;5092815;28;20036;-73
2023/01/23 11:55:40;;;;;;;15.13;11.57;;;;;;;;;;5092753;28;20051;-73
2023/01/23 11:58:13;;;;;;;18.52;12.57;;;;;;;;;;5092864;28;20048;-73
2023/01/23 12:00:48;;;;;;;21.88;14.27;;;;;;;;;;5092694;28;20048;-73
2023/01/23 12:03:32;;;;;;;15.85;12.27;;;;;;;;;;5091592;28;20051;-73
2023/01/23 12:06:17;;;;;;;15.00;11.40;;;;;;;;;;5081529;28;20052;-73
2023/01/23 12:08:55;;;;;;;15.77;10.68;;;;;;;;;;5091879;28;20075;-73
2023/01/23 12:11:23;;;;;;;18.73;11.05;;;;;;;;;;5091864;28;20078;-73
2023/01/23 12:13:52;;;;;;;16.85;10.88;;;;;;;;;;5074269;28;20052;-73
2023/01/23 12:16:56;;;;;;;13.63;9.63;;;;;;;;;;5092589;28;20051;-74
2023/01/23 12:19:22;;;;;;;15.50;10.35;;;;;;;;;;5029482;28;20041;-73
2023/01/23 12:22:01;;;;;;;15.13;10.02;;;;;;;;;;5029709;28;20057;-76
2023/01/23 12:24:50;;;;;;;16.65;11.18;;;;;;;;;;5027080;28;20058;-73
2023/01/23 12:27:19;;;;;;;13.80;10.00;;;;;;;;;;4969528;28;20081;-73
2023/01/23 12:30:00;;;;;;;14.05;10.90;;;;;;;;;;4971508;28;20505;-74
2023/01/23 12:32:32;;;;;;;22.23;12.40;;;;;;;;;;4971117;28;20498;-76
2023/01/23 12:35:06;;;;;;;18.77;10.30;;;;;;;;;;4957201;28;20051;-73
2023/01/23 12:37:43;;;;;;;16.83;11.23;;;;;;;;;;4951729;29;20510;-73
2023/01/23 12:40:12;;;;;;;17.27;11.85;;;;;;;;;;4962666;28;20043;-73
2023/01/23 12:43:01;;;;;;;15.30;11.88;;;;;;;;;;4971122;28;20066;-73
2023/01/23 12:45:29;;;;;;;18.92;12.85;;;;;;;;;;4970909;28;20090;-73
2023/01/23 12:48:14;;;;;;;17.80;11.93;;;;;;;;;;4954858;28;20169;-73
2023/01/23 12:50:57;;;;;;;20.17;13.27;;;;;;;;;;4978422;28;20070;-73
2023/01/23 12:53:23;;;;;;;18.02;11.52;;;;;;;;;;4994339;28;20078;-73
2023/01/23 12:56:12;;;;;;;18.20;12.90;;;;;;;;;;4992372;28;20421;-73
2023/01/23 12:58:44;;;;;;;18.27;12.07;;;;;;;;;;4976253;28;20047;-73
2023/01/23 13:01:16;;;;;;;17.67;12.23;;;;;;;;;;4974576;28;20046;-73
2023/01/23 13:03:56;;;;;;;18.40;13.02;;;;;;;;;;5012117;28;20055;-73
2023/01/23 13:06:52;;;;;;;17.23;11.82;;;;;;;;;;5075446;28;20049;-73
2023/01/23 13:09:32;;;;;;;15.65;12.05;;;;;;;;;;4977017;28;20051;-74
2023/01/23 13:12:01;;;;;;;16.55;12.05;;;;;;;;;;4993192;28;20437;-75
2023/01/23 13:14:30;;;;;;;16.33;11.80;;;;;;;;;;4992466;28;20054;-73
2023/01/23 13:16:56;;;;;;;15.43;12.23;;;;;;;;;;4992842;28;20050;-73
2023/01/23 13:22:15;;;;;;;18.33;11.68;;;;;;;;;;4977794;28;20050;-73
2023/01/23 13:27:33;;;;;;;18.60;11.50;;;;;;;;;;4998822;28;20093;-72
2023/01/23 13:30:01;;;;;;;15.85;11.95;;;;;;;;;;4992606;28;20047;-73
2023/01/23 13:32:29;;;;;;;17.17;11.10;;;;;;;;;;4988432;28;20046;-73
2023/01/23 13:34:56;;;;;;;19.08;11.93;;;;;;;;;;4993586;28;20412;-75
2023/01/23 13:37:32;;;;;;;15.40;9.90;;;;;;;;;;4992792;28;20058;-73
2023/01/23 13:40:12;;;;;;;14.43;10.63;;;;;;;;;;4988284;28;20076;-72
2023/01/23 13:42:38;;;;;;;17.02;12.20;;;;;;;;;;4993424;28;20094;-73
2023/01/23 13:45:14;;;;;;;14.80;10.07;;;;;;;;;;5018152;28;20060;-73
2023/01/23 13:50:34;;;;;;;19.67;11.32;;;;;;;;;;5094605;28;20060;-76
2023/01/23 13:58:38;;;;;;;15.60;11.05;;;;;;;;;;5076492;28;20052;-74
2023/01/23 14:06:47;;;;;;;15.48;10.52;;;;;;;;;;5074244;28;20048;-73
2023/01/23 14:09:23;;;;;;;17.23;12.00;;;;;;;;;;5085132;28;20052;-73
2023/01/23 14:11:56;;;;;;;20.80;13.05;;;;;;;;;;5078248;28;20040;-73
2023/01/23 14:17:08;;;;;;;18.77;12.25;;;;;;;;;;5092018;28;20418;-72
2023/01/23 14:19:34;;;;;;;18.23;12.55;;;;;;;;;;5091105;28;20151;-74
2023/01/23 14:22:03;;;;;;;21.45;13.60;;;;;;;;;;5094715;28;20044;-71
2023/01/23 14:24:41;;;;;;;18.50;13.15;;;;;;;;;;5094478;28;20040;-72
2023/01/23 14:27:09;;;;;;;17.70;11.88;;;;;;;;;;5094415;28;20048;-71
2023/01/23 14:29:35;;;;;;;15.38;12.38;;;;;;;;;;5094265;28;20429;-71
2023/01/23 14:32:01;;;;;;;21.50;14.57;;;;;;;;;;5085382;28;20036;-72
2023/01/23 14:34:27;;;;;;;19.38;12.95;;;;;;;;;;5073879;28;20402;-72
2023/01/23 14:36:56;;;;;;;19.15;14.75;;;;;;;;;;5073767;28;20048;-72
2023/01/23 14:39:25;;;;;;;20.05;12.98;;;;;;;;;;5073930;28;20052;-72
2023/01/23 14:41:53;;;;;;;17.45;12.18;;;;;;;;;;5073918;28;20086;-72
2023/01/23 14:44:20;;;;;;;18.45;13.30;;;;;;;;;;5075277;28;20037;-72
2023/01/23 14:46:49;;;;;;;17.60;13.60;;;;;;;;;;5073892;28;20044;-71
2023/01/23 14:49:18;;;;;;;19.15;13.13;;;;;;;;;;5069176;28;20040;-71
2023/01/23 14:51:58;;;;;;;19.38;13.18;;;;;;;;;;5090432;28;20180;-72
2023/01/23 14:54:24;;;;;;;19.27;12.82;;;;;;;;;;5074612;28;20449;-71
2023/01/23 14:56:50;;;;;;;21.17;13.63;;;;;;;;;;5073373;28;20372;-71
2023/01/23 14:59:24;;;;;;;17.95;13.50;;;;;;;;;;5084853;28;20546;-72